Weather at Francisco Bangoy International Airport

Public forecast

Using degrees Celsius for public forecast. Weather courtesy of forecast.io.

Current aviation weather report (METAR) for Francisco Bangoy International Airport

2024/06/13 10:00 (retrieved 37 minutes ago)

RPMD 131000Z 31003KT 270V360 9999 -SHRA SCT015CB BKN080 26/26 Q1010 RMK A2983 CB NW-N LGT SHRA

Aviation forecast (TAF) for Francisco Bangoy International Airport

2024/06/13 06:00 (retrieved 5 hours ago)

TAF RPMD 130500Z 1306/1406 17006KT 9999 FEW016 SCT090 TEMPO 1306/1312 22008KT -SHRA FEW015CB SCT016 BKN080 TEMPO 1318/1324 VRB02KT